Philip Billard Municipal Airport
KTOP : rendu visible

Aérodrome :











RETROUVEZ-NOUS SUR...

 
LOGIN :

S'inscrire | Disclaimer

   EN    FR    IT 

 









Légende :    VFR   VFR Marginal   IFR   IFR Intensif   IFR Très Intensif
Visi : 
Plafond : 
>= 8 km
>= 3000ft
5 à 8 km
1000 à 3000 ft
1500m à 5 km
500 à 1000 ft
800 à 1500m
200 à 500 ft
< 800m
< 200 ft
Symboles :   Orages  Brouillard  Fortes neiges  Fortes précipitations  Vent > 20 kt






- Altitude de l'aérodrome : 881 ft


KTOP - Philip Billard Municipal

DERNIER METAR :
  • 100753Z AUTO 00000KT 10SM CLR M07/M12 A3018 RMK AO2 SLP229 T10671117

METARs EXPIRÉS :
  • 100653Z AUTO 18003KT 10SM CLR M07/M12 A3018 RMK AO2 SLP228 T10721117
  • 100553Z AUTO 21003KT 10SM CLR M06/M12 A3019 RMK AO2 SLP234 T10611117 11039 21061 400891061 51012

TAF KTOP
Valide du 10 à 06h jusqu'au 11 à 06h UTC


100520Z 1006/1106 23004KT P6SM FEW250
FM101400 34008KT P6SM FEW045
FM101900 34007KT P6SM SCT045 BKN090
FM110300 15003KT P6SM SCT250



MET'MAP, la Météo Aéronautique d'un coup d'oeil ! - Copyright ORBIFLY Décembre 2007 - Disclaimer

ORBIFLY MET'MAP TEAM :

Programmation & Développement : Alexandra Zaïnal
Sur une idée originale de : Baudouin d'Aumeries
Assistance à la programmation : Marc-Olivier Méhu
Soutien technique & logistique : Manuel Goepfert

Contact : metmap@orbifly.com




SOURCES & CREDITS :

   NOAA       Earth
Advisory